Time,TemperatureF,DewpointF,PressureIn,WindDirection,WindDirectionDegrees,WindSpeedMPH,WindSpeedGustMPH,Humidity,HourlyPrecipIn,Conditions,Clouds,dailyrainin,SoftwareType,DateUTC
2013-02-05 00:03:00,3.5,0.0,29.94,West,260,0.0,1.0,85,0.00,,,0.00,weatherlink.com 1.10,2013-02-05 05:03:00,
2013-02-05 00:18:00,2.8,0.0,29.94,WNW,283,0.0,1.0,86,0.00,,,0.00,weatherlink.com 1.10,2013-02-05 05:18:00,
2013-02-05 00:34:00,0.7,-3.0,29.93,WNW,283,0.0,0.0,85,0.00,,,0.00,weatherlink.com 1.10,2013-02-05 05:34:00,
2013-02-05 00:49:00,1.7,-2.0,29.93,WNW,292,0.0,2.0,85,0.00,,,0.00,weatherlink.com 1.10,2013-02-05 05:49:00,
2013-02-05 01:04:00,1.8,-1.0,29.93,WNW,287,0.0,2.0,87,0.00,,,0.00,weatherlink.com 1.10,2013-02-05 06:04:00,
2013-02-05 01:19:00,2.9,0.0,29.93,SW,232,0.0,2.0,86,0.00,,,0.00,weatherlink.com 1.10,2013-02-05 06:19:00,
2013-02-05 01:34:00,3.6,0.0,29.92,West,270,0.0,2.0,84,0.00,,,0.00,weatherlink.com 1.10,2013-02-05 06:34:00,
2013-02-05 01:49:00,3.1,-1.0,29.92,West,268,0.0,4.0,83,0.00,,,0.00,weatherlink.com 1.10,2013-02-05 06:49:00,
2013-02-05 02:04:00,2.6,-1.0,29.92,West,281,0.0,2.0,84,0.00,,,0.00,weatherlink.com 1.10,2013-02-05 07:04:00,
2013-02-05 02:19:00,1.7,-3.0,29.91,WSW,253,0.0,1.0,82,0.00,,,0.00,weatherlink.com 1.10,2013-02-05 07:19:00,
2013-02-05 02:34:00,-0.1,-4.0,29.91,WSW,253,0.0,0.0,85,0.00,,,0.00,weatherlink.com 1.10,2013-02-05 07:34:00,
2013-02-05 02:49:00,-1.9,-5.0,29.91,WSW,253,0.0,0.0,86,0.00,,,0.00,weatherlink.com 1.10,2013-02-05 07:49:00,
2013-02-05 03:05:00,-2.8,-6.0,29.91,WSW,253,0.0,1.0,88,0.00,,,0.00,weatherlink.com 1.10,2013-02-05 08:05:00,
2013-02-05 03:19:00,-2.8,-5.0,29.91,WSW,252,0.0,0.0,89,0.00,,,0.00,weatherlink.com 1.10,2013-02-05 08:19:00,
2013-02-05 03:34:00,-2.6,-5.0,29.90,WSW,253,0.0,1.0,89,0.00,,,0.00,weatherlink.com 1.10,2013-02-05 08:34:00,
2013-02-05 03:50:00,0.8,-2.0,29.90,WSW,248,0.0,2.0,88,0.00,,,0.00,weatherlink.com 1.10,2013-02-05 08:50:00,
2013-02-05 04:05:00,1.2,-2.0,29.90,West,271,0.0,1.0,85,0.00,,,0.00,weatherlink.com 1.10,2013-02-05 09:05:00,
2013-02-05 04:20:00,-0.8,-4.0,29.89,West,276,0.0,0.0,85,0.00,,,0.00,weatherlink.com 1.10,2013-02-05 09:20:00,
2013-02-05 04:35:00,-2.7,-6.0,29.89,West,276,0.0,0.0,86,0.00,,,0.00,weatherlink.com 1.10,2013-02-05 09:35:00,
2013-02-05 04:50:00,-3.0,-5.0,29.89,West,276,0.0,0.0,89,0.00,,,0.00,weatherlink.com 1.10,2013-02-05 09:50:00,
2013-02-05 05:05:00,-3.2,-6.0,29.89,West,276,0.0,0.0,89,0.00,,,0.00,weatherlink.com 1.10,2013-02-05 10:05:00,
2013-02-05 05:20:00,-3.0,-5.0,29.89,West,276,0.0,0.0,90,0.00,,,0.00,weatherlink.com 1.10,2013-02-05 10:20:00,
2013-02-05 05:35:00,-1.5,-4.0,29.88,West,276,0.0,1.0,90,0.00,,,0.00,weatherlink.com 1.10,2013-02-05 10:35:00,
2013-02-05 05:50:00,-1.8,-4.0,29.87,West,276,0.0,0.0,89,0.00,,,0.00,weatherlink.com 1.10,2013-02-05 10:50:00,
2013-02-05 06:05:00,-1.8,-4.0,29.86,West,276,0.0,1.0,89,0.00,,,0.00,weatherlink.com 1.10,2013-02-05 11:05:00,
2013-02-05 06:20:00,-1.5,-4.0,29.86,West,275,0.0,0.0,89,0.00,,,0.00,weatherlink.com 1.10,2013-02-05 11:20:00,
2013-02-05 06:35:00,-1.2,-4.0,29.85,West,276,0.0,0.0,89,0.00,,,0.00,weatherlink.com 1.10,2013-02-05 11:35:00,
2013-02-05 06:50:00,-0.4,-3.0,29.84,West,276,0.0,0.0,89,0.00,,,0.00,weatherlink.com 1.10,2013-02-05 11:50:00,
2013-02-05 07:05:00,0.1,-2.0,29.84,West,276,0.0,0.0,89,0.00,,,0.00,weatherlink.com 1.10,2013-02-05 12:05:00,
2013-02-05 07:21:00,1.7,-1.0,29.83,West,276,0.0,0.0,90,0.00,,,0.00,weatherlink.com 1.10,2013-02-05 12:21:00,
2013-02-05 07:36:00,4.2,2.0,29.83,SSE,159,0.0,0.0,92,0.00,,,0.00,weatherlink.com 1.10,2013-02-05 12:36:00,
2013-02-05 07:51:00,7.5,6.0,29.84,SE,124,0.0,1.0,93,0.00,,,0.00,weatherlink.com 1.10,2013-02-05 12:51:00,
2013-02-05 08:06:00,10.3,9.0,29.84,SW,225,0.0,1.0,93,0.00,,,0.00,weatherlink.com 1.10,2013-02-05 13:06:00,
2013-02-05 08:21:00,13.0,12.0,29.83,SW,226,1.0,4.0,94,0.00,,,0.00,weatherlink.com 1.10,2013-02-05 13:21:00,
2013-02-05 08:36:00,14.7,13.0,29.83,ESE,115,1.0,3.0,93,0.00,,,0.00,weatherlink.com 1.10,2013-02-05 13:36:00,
2013-02-05 08:51:00,15.5,14.0,29.83,ESE,118,2.0,5.0,92,0.00,,,0.00,weatherlink.com 1.10,2013-02-05 13:51:00,
2013-02-05 09:06:00,16.2,14.0,29.83,SSW,204,1.0,4.0,92,0.00,,,0.00,weatherlink.com 1.10,2013-02-05 14:06:00,
2013-02-05 09:21:00,16.6,15.0,29.82,South,186,1.0,9.0,92,0.00,,,0.00,weatherlink.com 1.10,2013-02-05 14:21:00,
2013-02-05 09:36:00,17.2,15.0,29.82,SSW,201,4.0,6.0,92,0.00,,,0.00,weatherlink.com 1.10,2013-02-05 14:36:00,
2013-02-05 09:51:00,17.4,16.0,29.81,SW,220,2.0,7.0,92,0.00,,,0.00,weatherlink.com 1.10,2013-02-05 14:51:00,
2013-02-05 10:06:00,17.7,16.0,29.80,SSW,201,5.0,8.0,91,0.00,,,0.00,weatherlink.com 1.10,2013-02-05 15:06:00,
2013-02-05 10:21:00,17.8,16.0,29.80,West,259,4.0,7.0,91,0.00,,,0.00,weatherlink.com 1.10,2013-02-05 15:21:00,
2013-02-05 10:37:00,18.2,16.0,29.79,SSE,153,3.0,8.0,91,0.00,,,0.00,weatherlink.com 1.10,2013-02-05 15:37:00,
2013-02-05 10:52:00,18.6,16.0,29.78,SSE,167,3.0,8.0,91,0.00,,,0.00,weatherlink.com 1.10,2013-02-05 15:52:00,
2013-02-05 11:07:00,18.7,17.0,29.78,SW,215,3.0,11.0,91,0.00,,,0.00,weatherlink.com 1.10,2013-02-05 16:07:00,
2013-02-05 11:22:00,19.2,17.0,29.77,SSW,207,3.0,8.0,91,0.00,,,0.00,weatherlink.com 1.10,2013-02-05 16:22:00,
2013-02-05 11:37:00,19.8,17.0,29.76,SSW,206,9.0,9.0,90,0.00,,,0.00,weatherlink.com 1.10,2013-02-05 16:37:00,
2013-02-05 11:52:00,20.3,18.0,29.75,SW,226,4.0,13.0,90,0.00,,,0.00,weatherlink.com 1.10,2013-02-05 16:52:00,
2013-02-05 12:07:00,20.5,18.0,29.74,South,181,6.0,11.0,90,0.00,,,0.00,weatherlink.com 1.10,2013-02-05 17:07:00,
2013-02-05 12:22:00,20.5,18.0,29.74,SW,235,9.0,14.0,89,0.00,,,0.00,weatherlink.com 1.10,2013-02-05 17:22:00,
2013-02-05 12:37:00,20.8,18.0,29.73,SW,226,6.0,9.0,90,0.00,,,0.00,weatherlink.com 1.10,2013-02-05 17:37:00,
2013-02-05 12:52:00,20.8,18.0,29.73,SW,236,2.0,10.0,89,0.00,,,0.00,weatherlink.com 1.10,2013-02-05 17:52:00,
2013-02-05 13:07:00,20.5,18.0,29.72,South,184,1.0,9.0,89,0.00,,,0.00,weatherlink.com 1.10,2013-02-05 18:07:00,
2013-02-05 13:22:00,21.0,18.0,29.71,SW,215,4.0,7.0,89,0.00,,,0.00,weatherlink.com 1.10,2013-02-05 18:22:00,
2013-02-05 13:37:00,21.3,18.0,29.70,WSW,250,6.0,8.0,88,0.00,,,0.00,weatherlink.com 1.10,2013-02-05 18:37:00,
2013-02-05 13:53:00,21.7,19.0,29.70,SW,233,3.0,11.0,88,0.00,,,0.00,weatherlink.com 1.10,2013-02-05 18:53:00,
2013-02-05 14:08:00,21.7,19.0,29.70,WNW,283,1.0,11.0,88,0.00,,,0.00,weatherlink.com 1.10,2013-02-05 19:08:00,
2013-02-05 14:23:00,21.5,19.0,29.70,SSW,204,2.0,7.0,89,0.00,,,0.00,weatherlink.com 1.10,2013-02-05 19:23:00,
2013-02-05 14:38:00,21.5,19.0,29.69,SSE,156,1.0,10.0,89,0.00,,,0.00,weatherlink.com 1.10,2013-02-05 19:38:00,
2013-02-05 14:53:00,21.8,19.0,29.70,West,278,3.0,8.0,89,0.00,,,0.00,weatherlink.com 1.10,2013-02-05 19:53:00,
2013-02-05 15:08:00,21.8,19.0,29.69,SSW,203,4.0,7.0,89,0.00,,,0.00,weatherlink.com 1.10,2013-02-05 20:08:00,
2013-02-05 15:23:00,21.7,19.0,29.70,South,191,3.0,5.0,90,0.00,,,0.00,weatherlink.com 1.10,2013-02-05 20:23:00,
2013-02-05 15:38:00,22.0,20.0,29.70,SW,222,0.0,6.0,90,0.00,,,0.00,weatherlink.com 1.10,2013-02-05 20:38:00,
2013-02-05 15:53:00,22.5,20.0,29.70,WNW,284,4.0,7.0,89,0.00,,,0.00,weatherlink.com 1.10,2013-02-05 20:53:00,
2013-02-05 16:08:00,22.7,19.0,29.71,West,269,2.0,7.0,87,0.00,,,0.00,weatherlink.com 1.10,2013-02-05 21:08:00,
2013-02-05 16:23:00,21.9,19.0,29.72,NNE,25,1.0,6.0,89,0.00,,,0.00,weatherlink.com 1.10,2013-02-05 21:23:00,
2013-02-05 16:38:00,20.4,18.0,29.73,NE,47,2.0,9.0,89,0.00,,,0.00,weatherlink.com 1.10,2013-02-05 21:38:00,
2013-02-05 16:53:00,19.2,17.0,29.74,ESE,105,2.0,9.0,90,0.00,,,0.00,weatherlink.com 1.10,2013-02-05 21:53:00,
2013-02-05 17:09:00,18.6,16.0,29.75,WNW,284,1.0,7.0,89,0.00,,,0.00,weatherlink.com 1.10,2013-02-05 22:09:00,
2013-02-05 17:24:00,17.7,15.0,29.76,NNW,338,1.0,9.0,88,0.00,,,0.00,weatherlink.com 1.10,2013-02-05 22:24:00,
2013-02-05 17:39:00,16.7,14.0,29.77,NW,315,1.0,4.0,89,0.00,,,0.00,weatherlink.com 1.10,2013-02-05 22:39:00,
2013-02-05 17:54:00,15.2,13.0,29.78,NW,307,0.0,1.0,89,0.00,,,0.00,weatherlink.com 1.10,2013-02-05 22:54:00,
2013-02-05 18:09:00,13.9,12.0,29.79,NW,314,0.0,1.0,90,0.00,,,0.00,weatherlink.com 1.10,2013-02-05 23:09:00,
2013-02-05 18:24:00,14.0,12.0,29.80,West,281,2.0,3.0,92,0.00,,,0.00,weatherlink.com 1.10,2013-02-05 23:24:00,
2013-02-05 18:39:00,15.7,13.0,29.81,WNW,283,3.0,6.0,90,0.00,,,0.00,weatherlink.com 1.10,2013-02-05 23:39:00,
2013-02-05 18:54:00,15.6,13.0,29.81,West,260,2.0,4.0,89,0.00,,,0.00,weatherlink.com 1.10,2013-02-05 23:54:00,
2013-02-05 19:09:00,15.0,13.0,29.82,WNW,288,2.0,4.0,90,0.00,,,0.00,weatherlink.com 1.10,2013-02-06 00:09:00,
2013-02-05 19:24:00,14.4,12.0,29.82,West,259,1.0,4.0,90,0.00,,,0.00,weatherlink.com 1.10,2013-02-06 00:24:00,
2013-02-05 19:39:00,14.4,12.0,29.82,West,265,2.0,4.0,91,0.00,,,0.00,weatherlink.com 1.10,2013-02-06 00:39:00,
2013-02-05 20:09:00,16.4,15.0,29.84,WNW,299,0.0,10.0,92,0.00,,,0.00,weatherlink.com 1.10,2013-02-06 01:09:00,
2013-02-05 20:25:00,16.4,14.0,29.85,WNW,299,5.0,7.0,91,0.00,,,0.00,weatherlink.com 1.10,2013-02-06 01:25:00,
2013-02-05 20:40:00,16.6,15.0,29.87,WNW,296,5.0,10.0,91,0.00,,,0.00,weatherlink.com 1.10,2013-02-06 01:40:00,
2013-02-05 20:55:00,16.8,14.0,29.87,West,260,4.0,10.0,89,0.00,,,0.00,weatherlink.com 1.10,2013-02-06 01:55:00,
2013-02-05 21:10:00,16.8,14.0,29.88,NNE,32,1.0,10.0,87,0.00,,,0.00,weatherlink.com 1.10,2013-02-06 02:10:00,
2013-02-05 21:25:00,16.3,13.0,29.89,WNW,299,4.0,11.0,87,0.00,,,0.00,weatherlink.com 1.10,2013-02-06 02:25:00,
2013-02-05 21:40:00,16.1,13.0,29.90,NNW,340,6.0,12.0,87,0.00,,,0.00,weatherlink.com 1.10,2013-02-06 02:40:00,
2013-02-05 21:55:00,15.9,13.0,29.91,NW,305,7.0,12.0,88,0.00,,,0.00,weatherlink.com 1.10,2013-02-06 02:55:00,
2013-02-05 22:10:00,15.7,13.0,29.91,West,269,6.0,12.0,90,0.00,,,0.00,weatherlink.com 1.10,2013-02-06 03:10:00,
2013-02-05 22:25:00,15.5,12.0,29.91,WNW,290,6.0,13.0,87,0.00,,,0.00,weatherlink.com 1.10,2013-02-06 03:25:00,
2013-02-05 22:40:00,15.3,12.0,29.92,NNW,335,4.0,11.0,85,0.00,,,0.00,weatherlink.com 1.10,2013-02-06 03:40:00,
2013-02-05 22:55:00,14.7,10.0,29.93,WNW,284,5.0,13.0,83,0.00,,,0.00,weatherlink.com 1.10,2013-02-06 03:55:00,
2013-02-05 23:10:00,13.9,9.0,29.94,NNE,16,2.0,8.0,81,0.00,,,0.00,weatherlink.com 1.10,2013-02-06 04:10:00,
2013-02-05 23:25:00,13.2,8.0,29.95,NW,312,4.0,7.0,81,0.00,,,0.00,weatherlink.com 1.10,2013-02-06 04:25:00,
2013-02-05 23:40:00,12.5,8.0,29.96,WNW,302,8.0,9.0,83,0.00,,,0.00,weatherlink.com 1.10,2013-02-06 04:40:00,
2013-02-05 23:56:00,12.2,8.0,29.97,NNE,13,2.0,9.0,84,0.00,,,0.00,weatherlink.com 1.10,2013-02-06 04:56:00,